Time;durP1;ratioP1;P1;durP2;ratioP2;P2;SDS_P1;SDS_P2;PMS_P1;PMS_P2;Temp;Humidity;BMP_temperature;BMP_pressure;BME280_temperature;BME280_humidity;BME280_pressure;Samples;Min_cycle;Max_cycle;Signal;HPM_P1;HPM_P2
2022/10/28 00:02:09;;;;;;;33.10;21.67;;;;;;;;;;5052701;28;20016;-76
2022/10/28 00:04:35;;;;;;;36.25;23.45;;;;;;;;;;5058949;28;20079;-76
2022/10/28 00:07:01;;;;;;;36.15;23.45;;;;;;;;;;5060006;28;20032;-75
2022/10/28 00:09:27;;;;;;;35.78;24.80;;;;;;;;;;5053909;28;20210;-76
2022/10/28 00:11:53;;;;;;;32.80;22.98;;;;;;;;;;5053767;28;20036;-75
2022/10/28 00:14:19;;;;;;;34.20;23.52;;;;;;;;;;5064288;28;20044;-76
2022/10/28 00:16:45;;;;;;;34.08;22.67;;;;;;;;;;5048078;28;20021;-76
2022/10/28 00:19:12;;;;;;;31.92;22.65;;;;;;;;;;5051316;28;20025;-76
2022/10/28 00:21:39;;;;;;;33.22;22.95;;;;;;;;;;5052640;28;20016;-75
2022/10/28 00:24:06;;;;;;;36.25;23.85;;;;;;;;;;5055672;28;20406;-75
2022/10/28 00:26:35;;;;;;;35.90;22.90;;;;;;;;;;5049476;28;20036;-75
2022/10/28 00:29:23;;;;;;;31.45;22.38;;;;;;;;;;5032040;28;20041;-75
2022/10/28 00:31:51;;;;;;;38.63;25.48;;;;;;;;;;5059012;28;20402;-76
2022/10/28 00:34:20;;;;;;;43.35;26.98;;;;;;;;;;5050279;28;20029;-75
2022/10/28 00:36:46;;;;;;;40.72;25.60;;;;;;;;;;5058350;28;20021;-75
2022/10/28 00:39:20;;;;;;;44.40;29.58;;;;;;;;;;5051970;28;20028;-74
2022/10/28 00:41:48;;;;;;;38.95;26.75;;;;;;;;;;5041832;28;20021;-76
2022/10/28 00:44:32;;;;;;;42.92;28.80;;;;;;;;;;5057874;28;20021;-75
2022/10/28 00:46:59;;;;;;;48.90;30.73;;;;;;;;;;5051500;28;20103;-76
2022/10/28 00:49:28;;;;;;;59.08;33.90;;;;;;;;;;5034911;28;20036;-75
2022/10/28 00:51:57;;;;;;;49.50;32.30;;;;;;;;;;5046452;28;20405;-76
2022/10/28 00:54:23;;;;;;;43.03;30.08;;;;;;;;;;5054096;28;20028;-75
2022/10/28 00:56:51;;;;;;;51.63;34.80;;;;;;;;;;5057945;28;20078;-75
2022/10/28 00:59:28;;;;;;;52.20;35.78;;;;;;;;;;5047449;28;20034;-75
2022/10/28 01:01:55;;;;;;;48.03;33.42;;;;;;;;;;5044526;28;20028;-75
2022/10/28 01:04:21;;;;;;;46.53;31.77;;;;;;;;;;5055802;28;20390;-76
2022/10/28 01:06:48;;;;;;;44.65;30.88;;;;;;;;;;5048520;28;20021;-76
2022/10/28 01:09:14;;;;;;;47.78;30.85;;;;;;;;;;5054477;28;20037;-76
2022/10/28 01:11:52;;;;;;;43.15;29.98;;;;;;;;;;5050844;28;20112;-76
2022/10/28 01:14:21;;;;;;;40.05;28.35;;;;;;;;;;5046974;28;20051;-75
2022/10/28 01:16:50;;;;;;;40.53;27.83;;;;;;;;;;5046756;28;20024;-76
2022/10/28 01:19:16;;;;;;;43.08;29.30;;;;;;;;;;5050988;28;20032;-76
2022/10/28 01:21:57;;;;;;;39.05;27.73;;;;;;;;;;5047531;28;20031;-75
2022/10/28 01:24:42;;;;;;;43.50;28.88;;;;;;;;;;5048925;28;20520;-76
2022/10/28 01:27:11;;;;;;;42.72;26.58;;;;;;;;;;5042761;28;20034;-75
2022/10/28 01:29:46;;;;;;;40.33;27.25;;;;;;;;;;5048140;28;20040;-75
2022/10/28 01:32:12;;;;;;;45.17;28.88;;;;;;;;;;5049334;28;20037;-75
2022/10/28 01:34:43;;;;;;;43.72;29.17;;;;;;;;;;5033344;28;20021;-75
2022/10/28 01:37:19;;;;;;;42.75;28.17;;;;;;;;;;5047580;28;20042;-75
2022/10/28 01:39:48;;;;;;;43.50;26.60;;;;;;;;;;5051278;28;20025;-75
2022/10/28 01:42:23;;;;;;;45.58;29.67;;;;;;;;;;5055613;28;20031;-76
2022/10/28 01:45:07;;;;;;;45.65;28.95;;;;;;;;;;5044672;28;20029;-76
2022/10/28 01:47:39;;;;;;;51.72;32.60;;;;;;;;;;5047543;28;20124;-76
2022/10/28 01:50:08;;;;;;;63.15;36.78;;;;;;;;;;5050827;28;20025;-75
2022/10/28 01:52:34;;;;;;;58.08;36.72;;;;;;;;;;5051075;28;20214;-76
2022/10/28 01:55:22;;;;;;;54.55;35.08;;;;;;;;;;5052258;28;20064;-76
2022/10/28 01:57:50;;;;;;;57.78;36.25;;;;;;;;;;5051187;28;20836;-75
2022/10/28 02:00:16;;;;;;;58.90;38.17;;;;;;;;;;5051741;28;20032;-75
2022/10/28 02:02:42;;;;;;;57.08;35.45;;;;;;;;;;5044303;28;20387;-76
2022/10/28 02:05:27;;;;;;;58.30;36.72;;;;;;;;;;5050920;28;20032;-76
2022/10/28 02:07:57;;;;;;;62.72;37.78;;;;;;;;;;5057617;28;20293;-75
2022/10/28 02:10:31;;;;;;;59.47;36.88;;;;;;;;;;5042607;28;20470;-76
2022/10/28 02:12:59;;;;;;;62.22;37.95;;;;;;;;;;5051474;28;20037;-75
2022/10/28 02:15:40;;;;;;;57.75;35.25;;;;;;;;;;5040398;28;20673;-75
2022/10/28 02:18:25;;;;;;;58.53;36.45;;;;;;;;;;5053164;28;20154;-76
2022/10/28 02:20:51;;;;;;;60.90;36.25;;;;;;;;;;5048193;28;20483;-75
2022/10/28 02:23:24;;;;;;;50.28;32.38;;;;;;;;;;5053700;28;20028;-75
2022/10/28 02:25:50;;;;;;;58.38;33.92;;;;;;;;;;5053140;28;20057;-75
2022/10/28 02:28:18;;;;;;;45.10;30.83;;;;;;;;;;5061601;28;20405;-76
2022/10/28 02:30:50;;;;;;;47.35;30.67;;;;;;;;;;5051584;28;20025;-75
2022/10/28 02:33:19;;;;;;;45.42;30.48;;;;;;;;;;5064042;28;20029;-75
2022/10/28 02:35:56;;;;;;;44.80;29.65;;;;;;;;;;5053083;28;20028;-76
2022/10/28 02:38:25;;;;;;;41.97;29.00;;;;;;;;;;5058295;28;20021;-75
2022/10/28 02:40:53;;;;;;;45.90;29.23;;;;;;;;;;5047450;28;20024;-76
2022/10/28 02:43:21;;;;;;;47.42;28.92;;;;;;;;;;5050224;28;20037;-76
2022/10/28 02:45:49;;;;;;;44.38;27.55;;;;;;;;;;5051192;28;20032;-76
2022/10/28 02:48:25;;;;;;;43.45;27.70;;;;;;;;;;5054387;28;20037;-76
2022/10/28 02:50:57;;;;;;;39.15;26.48;;;;;;;;;;5042688;28;20048;-76
2022/10/28 02:53:38;;;;;;;41.58;26.85;;;;;;;;;;5064449;28;20477;-75
2022/10/28 02:56:06;;;;;;;34.88;24.25;;;;;;;;;;5050957;28;20371;-76
2022/10/28 02:58:39;;;;;;;35.97;24.98;;;;;;;;;;5057144;28;20029;-76
2022/10/28 03:01:05;;;;;;;42.80;26.30;;;;;;;;;;5054066;28;20029;-74
2022/10/28 03:03:32;;;;;;;47.25;29.30;;;;;;;;;;5066156;28;20040;-76
2022/10/28 03:05:58;;;;;;;48.75;29.65;;;;;;;;;;5062301;28;20104;-74
2022/10/28 03:08:24;;;;;;;58.55;33.58;;;;;;;;;;5055364;28;20036;-75
2022/10/28 03:10:51;;;;;;;51.28;32.92;;;;;;;;;;5052164;28;20029;-75
2022/10/28 03:13:17;;;;;;;47.35;30.73;;;;;;;;;;5054568;28;20043;-75
2022/10/28 03:15:43;;;;;;;50.95;30.88;;;;;;;;;;5036277;28;20052;-75
2022/10/28 03:18:09;;;;;;;51.28;30.77;;;;;;;;;;5055901;28;20402;-75
2022/10/28 03:20:35;;;;;;;50.35;31.10;;;;;;;;;;5056013;28;20025;-75
2022/10/28 03:23:01;;;;;;;45.28;28.33;;;;;;;;;;5055085;28;20032;-76
2022/10/28 03:25:27;;;;;;;45.72;27.83;;;;;;;;;;5063762;28;20024;-76
2022/10/28 03:27:53;;;;;;;53.55;32.58;;;;;;;;;;5056800;28;20053;-75
2022/10/28 03:30:19;;;;;;;51.88;32.47;;;;;;;;;;5054330;28;20474;-75
2022/10/28 03:32:45;;;;;;;63.17;36.50;;;;;;;;;;5050676;28;20064;-75
2022/10/28 03:35:11;;;;;;;66.07;38.30;;;;;;;;;;5051774;28;20033;-76
2022/10/28 03:37:40;;;;;;;87.30;42.85;;;;;;;;;;5055007;28;20151;-76
2022/10/28 03:40:06;;;;;;;156.10;49.47;;;;;;;;;;5052042;28;20023;-75
2022/10/28 03:42:33;;;;;;;311.90;56.63;;;;;;;;;;5059713;28;20028;-75
2022/10/28 03:44:59;;;;;;;293.85;58.85;;;;;;;;;;5052104;28;20024;-75
2022/10/28 03:47:25;;;;;;;342.70;61.17;;;;;;;;;;5053735;28;20040;-75
2022/10/28 03:49:51;;;;;;;426.02;66.07;;;;;;;;;;5051711;28;20105;-75
2022/10/28 03:52:17;;;;;;;448.40;73.53;;;;;;;;;;5053835;28;20048;-75
2022/10/28 03:54:43;;;;;;;422.83;71.30;;;;;;;;;;5052341;28;20159;-76
2022/10/28 03:57:09;;;;;;;535.42;80.15;;;;;;;;;;5044175;28;20128;-75
2022/10/28 03:59:35;;;;;;;254.02;63.17;;;;;;;;;;5049167;28;20501;-75
2022/10/28 04:02:01;;;;;;;349.20;65.50;;;;;;;;;;5048037;28;20044;-75
2022/10/28 04:04:27;;;;;;;251.68;63.53;;;;;;;;;;5058303;28;20035;-75
2022/10/28 04:06:53;;;;;;;245.10;62.35;;;;;;;;;;5056813;28;20114;-76
2022/10/28 04:09:19;;;;;;;217.73;58.05;;;;;;;;;;5055678;28;20021;-76
2022/10/28 04:11:48;;;;;;;404.42;74.20;;;;;;;;;;5055753;28;20037;-75
2022/10/28 04:14:14;;;;;;;321.17;65.00;;;;;;;;;;5052850;28;20021;-75
2022/10/28 04:16:40;;;;;;;451.85;81.13;;;;;;;;;;5049628;28;20025;-75
2022/10/28 04:19:06;;;;;;;381.27;71.30;;;;;;;;;;5054723;28;20013;-75
2022/10/28 04:21:32;;;;;;;302.15;65.55;;;;;;;;;;5039119;28;20028;-75
2022/10/28 04:23:58;;;;;;;495.67;80.13;;;;;;;;;;5044463;28;20104;-75
2022/10/28 04:26:24;;;;;;;464.92;81.90;;;;;;;;;;5060106;28;20031;-75
2022/10/28 04:28:51;;;;;;;512.53;85.63;;;;;;;;;;5050698;28;20045;-75
2022/10/28 04:31:17;;;;;;;317.33;66.15;;;;;;;;;;5043790;28;20083;-76
2022/10/28 04:33:43;;;;;;;782.88;105.22;;;;;;;;;;5055068;28;20025;-75
2022/10/28 04:36:09;;;;;;;384.02;71.63;;;;;;;;;;5056261;28;20492;-75
2022/10/28 04:38:35;;;;;;;520.35;88.43;;;;;;;;;;5051204;28;20376;-75
2022/10/28 04:41:01;;;;;;;582.65;93.28;;;;;;;;;;5045642;28;20090;-75
2022/10/28 04:43:27;;;;;;;283.42;68.53;;;;;;;;;;5054759;28;20013;-75
2022/10/28 04:45:53;;;;;;;537.03;90.18;;;;;;;;;;5056040;28;20032;-75
2022/10/28 04:48:19;;;;;;;306.23;69.28;;;;;;;;;;5051821;28;20017;-75
2022/10/28 04:50:45;;;;;;;431.38;83.13;;;;;;;;;;5054164;28;20036;-76
2022/10/28 04:53:12;;;;;;;327.77;70.72;;;;;;;;;;5049361;28;20025;-75
2022/10/28 04:55:38;;;;;;;312.67;66.32;;;;;;;;;;5040054;28;20032;-76
2022/10/28 04:58:05;;;;;;;290.52;68.85;;;;;;;;;;5045701;28;20391;-75
2022/10/28 05:00:31;;;;;;;260.67;64.32;;;;;;;;;;5046707;28;20114;-76
2022/10/28 05:03:00;;;;;;;318.58;66.13;;;;;;;;;;5032939;28;20504;-75
2022/10/28 05:05:26;;;;;;;281.77;70.63;;;;;;;;;;5056946;28;20060;-75
2022/10/28 05:07:52;;;;;;;580.22;92.05;;;;;;;;;;5060030;28;20029;-76
2022/10/28 05:10:18;;;;;;;440.25;74.22;;;;;;;;;;5046879;28;20379;-75
2022/10/28 05:12:45;;;;;;;349.13;76.57;;;;;;;;;;5054198;28;20032;-76
2022/10/28 05:15:12;;;;;;;290.67;69.22;;;;;;;;;;5041821;28;20075;-75
2022/10/28 05:17:42;;;;;;;229.63;65.47;;;;;;;;;;5034027;28;20479;-79
2022/10/28 05:20:10;;;;;;;227.45;65.80;;;;;;;;;;5058175;28;20541;-76
2022/10/28 05:22:36;;;;;;;202.13;62.50;;;;;;;;;;5061417;28;20086;-75
2022/10/28 05:25:03;;;;;;;201.07;57.75;;;;;;;;;;5041915;28;20401;-78
2022/10/28 05:27:31;;;;;;;202.95;58.83;;;;;;;;;;5051528;28;20125;-83
2022/10/28 05:29:57;;;;;;;209.50;60.88;;;;;;;;;;5029227;28;20045;-76
2022/10/28 05:32:23;;;;;;;221.27;62.92;;;;;;;;;;5044597;28;20040;-74
2022/10/28 05:34:49;;;;;;;212.10;60.47;;;;;;;;;;5057527;28;20044;-74
2022/10/28 05:37:15;;;;;;;190.48;59.35;;;;;;;;;;5064869;28;20393;-84
2022/10/28 05:39:41;;;;;;;247.15;58.25;;;;;;;;;;5036466;28;20520;-75
2022/10/28 05:42:07;;;;;;;200.65;61.63;;;;;;;;;;5055028;28;20032;-75
2022/10/28 05:44:33;;;;;;;153.80;52.50;;;;;;;;;;5046435;28;20038;-76
2022/10/28 05:46:59;;;;;;;206.02;59.67;;;;;;;;;;5038279;28;20031;-75
2022/10/28 05:49:26;;;;;;;151.43;57.22;;;;;;;;;;5055366;28;20028;-75
2022/10/28 05:51:52;;;;;;;132.10;54.13;;;;;;;;;;5052550;28;20041;-75
2022/10/28 05:54:18;;;;;;;122.47;51.08;;;;;;;;;;5056597;28;20029;-76
2022/10/28 05:56:47;;;;;;;110.50;49.08;;;;;;;;;;5048721;28;20032;-76
2022/10/28 05:59:13;;;;;;;156.25;52.63;;;;;;;;;;5056909;28;20052;-77
2022/10/28 06:01:39;;;;;;;150.27;53.55;;;;;;;;;;5050965;28;20104;-75
2022/10/28 06:04:05;;;;;;;199.48;56.10;;;;;;;;;;5058720;28;20482;-75
2022/10/28 06:06:31;;;;;;;192.80;58.30;;;;;;;;;;5026703;28;20040;-75
2022/10/28 06:08:57;;;;;;;203.65;59.33;;;;;;;;;;5047565;28;20063;-75
2022/10/28 06:11:24;;;;;;;163.95;53.90;;;;;;;;;;5023574;28;20570;-75
2022/10/28 06:13:50;;;;;;;173.82;56.97;;;;;;;;;;5055586;28;20021;-75
2022/10/28 06:16:16;;;;;;;152.57;75.85;;;;;;;;;;5056761;28;20103;-75
2022/10/28 06:18:44;;;;;;;112.85;52.45;;;;;;;;;;5053106;28;20017;-75
2022/10/28 06:21:10;;;;;;;149.65;54.03;;;;;;;;;;5058533;28;20041;-76
2022/10/28 06:23:36;;;;;;;104.45;47.92;;;;;;;;;;5050325;28;20029;-76
2022/10/28 06:26:04;;;;;;;91.32;44.05;;;;;;;;;;5050562;28;20032;-76
2022/10/28 06:28:30;;;;;;;53.42;34.70;;;;;;;;;;5050380;28;20044;-75
2022/10/28 06:31:03;;;;;;;47.42;32.03;;;;;;;;;;5049294;28;20041;-76
2022/10/28 06:33:29;;;;;;;33.60;27.38;;;;;;;;;;5052273;28;20029;-76
2022/10/28 06:35:58;;;;;;;42.03;24.35;;;;;;;;;;5051888;28;20032;-75
2022/10/28 06:38:25;;;;;;;22.95;20.40;;;;;;;;;;5048582;28;20029;-76
2022/10/28 06:40:51;;;;;;;20.95;18.77;;;;;;;;;;5045751;28;20109;-76
2022/10/28 06:43:17;;;;;;;18.30;16.45;;;;;;;;;;5046742;28;20017;-76
2022/10/28 06:45:45;;;;;;;17.38;15.55;;;;;;;;;;5046788;28;20037;-76
2022/10/28 06:48:12;;;;;;;16.88;15.20;;;;;;;;;;5052905;28;20038;-76
2022/10/28 06:50:38;;;;;;;16.60;14.52;;;;;;;;;;5043505;28;20048;-75
2022/10/28 06:53:07;;;;;;;18.60;16.10;;;;;;;;;;5043080;28;20021;-75
2022/10/28 06:55:36;;;;;;;18.52;16.02;;;;;;;;;;5030485;28;20025;-75
2022/10/28 06:58:03;;;;;;;26.88;18.27;;;;;;;;;;5048486;28;20405;-75
2022/10/28 07:00:33;;;;;;;20.48;17.33;;;;;;;;;;5046096;28;20478;-76
2022/10/28 07:02:59;;;;;;;21.77;16.73;;;;;;;;;;5055172;28;20035;-75
2022/10/28 07:05:26;;;;;;;21.75;17.02;;;;;;;;;;5046798;28;20028;-75
2022/10/28 07:07:52;;;;;;;30.35;16.90;;;;;;;;;;5049162;28;20094;-76
2022/10/28 07:10:18;;;;;;;31.92;16.23;;;;;;;;;;5048238;28;20025;-77
2022/10/28 07:12:44;;;;;;;71.03;18.75;;;;;;;;;;5046470;28;20606;-74
2022/10/28 07:15:13;;;;;;;35.85;19.17;;;;;;;;;;5050479;28;20029;-77
2022/10/28 07:17:39;;;;;;;76.22;23.50;;;;;;;;;;5061870;28;20107;-76
2022/10/28 07:20:08;;;;;;;98.45;25.25;;;;;;;;;;5064895;28;20031;-76
2022/10/28 07:22:34;;;;;;;100.50;27.42;;;;;;;;;;5065193;28;20111;-76
2022/10/28 07:25:00;;;;;;;111.78;27.27;;;;;;;;;;5056810;28;20029;-75
2022/10/28 07:27:26;;;;;;;192.23;31.70;;;;;;;;;;5047920;28;20075;-75
2022/10/28 07:29:52;;;;;;;262.80;34.55;;;;;;;;;;5057187;28;20033;-76
2022/10/28 07:32:19;;;;;;;190.88;29.40;;;;;;;;;;5065651;28;20090;-75
2022/10/28 07:34:46;;;;;;;179.75;28.45;;;;;;;;;;5060131;28;20057;-76
2022/10/28 07:37:18;;;;;;;91.78;26.98;;;;;;;;;;5064758;28;20052;-77
2022/10/28 07:39:52;;;;;;;42.88;27.48;;;;;;;;;;5038356;28;20625;-77
2022/10/28 07:42:18;;;;;;;;;;;;;;;;;;5056818;28;20030;-78
2022/10/28 07:44:44;;;;;;;71.38;23.63;;;;;;;;;;5046162;28;20301;-78
2022/10/28 07:47:10;;;;;;;126.95;23.42;;;;;;;;;;5032762;28;20035;-78
2022/10/28 07:49:44;;;;;;;89.20;26.92;;;;;;;;;;5042300;28;20029;-78
2022/10/28 07:52:11;;;;;;;98.60;25.35;;;;;;;;;;5056736;28;20135;-79
2022/10/28 07:54:38;;;;;;;83.88;28.95;;;;;;;;;;5045778;28;20103;-79
2022/10/28 07:57:05;;;;;;;105.93;26.67;;;;;;;;;;5005340;28;20029;-79
2022/10/28 07:59:32;;;;;;;41.47;23.77;;;;;;;;;;5038609;28;20045;-78
2022/10/28 08:02:00;;;;;;;79.65;23.52;;;;;;;;;;5045014;28;20056;-78
2022/10/28 08:04:47;;;;;;;83.65;27.70;;;;;;;;;;5045784;28;20086;-79
2022/10/28 08:07:14;;;;;;;57.92;22.98;;;;;;;;;;5057297;28;20364;-78
2022/10/28 08:09:41;;;;;;;64.20;21.90;;;;;;;;;;5056376;28;20021;-78
2022/10/28 08:12:09;;;;;;;87.68;24.05;;;;;;;;;;5048802;28;20045;-78
2022/10/28 08:14:36;;;;;;;60.03;22.25;;;;;;;;;;5065486;28;20048;-78
2022/10/28 08:17:02;;;;;;;58.88;26.58;;;;;;;;;;5045659;28;20037;-78
2022/10/28 08:19:28;;;;;;;58.30;27.35;;;;;;;;;;5067738;28;20048;-77
2022/10/28 08:21:54;;;;;;;73.10;24.95;;;;;;;;;;5041685;28;20029;-76
2022/10/28 08:24:20;;;;;;;86.57;24.42;;;;;;;;;;5058440;28;20013;-75
2022/10/28 08:26:46;;;;;;;53.45;25.88;;;;;;;;;;5051078;28;20107;-76
2022/10/28 08:29:12;;;;;;;46.78;28.08;;;;;;;;;;5053121;28;20501;-74
2022/10/28 08:31:39;;;;;;;62.35;27.15;;;;;;;;;;5050937;28;20077;-76
2022/10/28 08:34:05;;;;;;;47.05;28.42;;;;;;;;;;5056303;28;20111;-75
2022/10/28 08:36:31;;;;;;;73.57;27.13;;;;;;;;;;5047695;28;20085;-77
2022/10/28 08:39:01;;;;;;;53.88;27.75;;;;;;;;;;5053230;28;20508;-75
2022/10/28 08:41:35;;;;;;;45.15;26.20;;;;;;;;;;5052643;28;20052;-76
2022/10/28 08:44:01;;;;;;;;;;;;;;;;;;5059782;28;20039;-75
2022/10/28 08:46:53;;;;;;;38.38;29.27;;;;;;;;;;5058560;28;20123;-76
2022/10/28 08:49:21;;;;;;;44.60;27.02;;;;;;;;;;5027632;28;20037;-74
2022/10/28 08:52:05;;;;;;;60.63;28.63;;;;;;;;;;5054174;28;20445;-76
2022/10/28 08:54:46;;;;;;;37.08;26.88;;;;;;;;;;5056356;28;20473;-73
2022/10/28 08:57:15;;;;;;;41.78;29.23;;;;;;;;;;5043223;28;20084;-74
2022/10/28 08:59:43;;;;;;;48.65;27.73;;;;;;;;;;5053630;28;20033;-74
2022/10/28 09:02:09;;;;;;;73.80;28.88;;;;;;;;;;5050896;28;20032;-75
2022/10/28 09:04:38;;;;;;;38.03;30.45;;;;;;;;;;5045519;28;20025;-76
2022/10/28 09:07:04;;;;;;;32.00;28.50;;;;;;;;;;5049263;28;20522;-76
2022/10/28 09:09:31;;;;;;;66.20;23.40;;;;;;;;;;5064521;28;20051;-76
2022/10/28 09:12:22;;;;;;;36.47;30.23;;;;;;;;;;5059972;28;20041;-74
2022/10/28 09:15:00;;;;;;;48.70;29.30;;;;;;;;;;5054302;28;20063;-75
2022/10/28 09:17:26;;;;;;;40.00;29.75;;;;;;;;;;5064138;28;20060;-76
2022/10/28 09:19:53;;;;;;;40.88;31.77;;;;;;;;;;5054330;28;20025;-76
2022/10/28 09:22:19;;;;;;;41.42;32.10;;;;;;;;;;5057926;28;20039;-75
2022/10/28 09:25:05;;;;;;;46.88;33.83;;;;;;;;;;5056986;28;20063;-74
2022/10/28 09:27:37;;;;;;;40.03;31.77;;;;;;;;;;5055553;28;20110;-75
2022/10/28 09:30:26;;;;;;;45.22;35.47;;;;;;;;;;5043105;28;20502;-75
2022/10/28 09:33:04;;;;;;;46.88;35.55;;;;;;;;;;5041371;28;20041;-75
2022/10/28 09:35:33;;;;;;;45.58;36.38;;;;;;;;;;5036317;28;20386;-75
2022/10/28 09:38:07;;;;;;;46.17;36.30;;;;;;;;;;5047104;28;20033;-75
2022/10/28 09:40:34;;;;;;;45.90;37.13;;;;;;;;;;5042131;28;20025;-75
2022/10/28 09:43:00;;;;;;;46.33;36.70;;;;;;;;;;5039730;28;20108;-76
2022/10/28 09:45:28;;;;;;;47.45;36.72;;;;;;;;;;5036344;28;20017;-73
2022/10/28 09:48:08;;;;;;;48.20;35.72;;;;;;;;;;5044888;28;20033;-74
2022/10/28 09:50:35;;;;;;;52.47;38.88;;;;;;;;;;5041388;28;20108;-73
2022/10/28 09:53:09;;;;;;;50.08;38.75;;;;;;;;;;5046849;28;20040;-77
2022/10/28 09:55:35;;;;;;;51.08;38.83;;;;;;;;;;5031894;28;20029;-73
2022/10/28 09:58:04;;;;;;;47.50;36.97;;;;;;;;;;5037466;28;20025;-75
2022/10/28 10:00:31;;;;;;;51.63;37.58;;;;;;;;;;5025427;28;20026;-74
2022/10/28 10:02:58;;;;;;;48.60;37.40;;;;;;;;;;5014980;28;20032;-73
2022/10/28 10:05:24;;;;;;;49.47;36.03;;;;;;;;;;5016197;28;20018;-72
2022/10/28 10:07:53;;;;;;;46.15;34.30;;;;;;;;;;5021062;28;20036;-73
2022/10/28 10:10:22;;;;;;;44.72;35.22;;;;;;;;;;5033073;28;20075;-73
2022/10/28 10:12:52;;;;;;;50.17;37.75;;;;;;;;;;5027322;28;20029;-72
2022/10/28 10:15:27;;;;;;;43.90;34.83;;;;;;;;;;5029256;28;20036;-73
2022/10/28 10:17:54;;;;;;;47.97;35.47;;;;;;;;;;5028049;28;20552;-73
2022/10/28 10:20:21;;;;;;;42.25;32.70;;;;;;;;;;5035305;28;20061;-74
2022/10/28 10:22:48;;;;;;;44.28;34.70;;;;;;;;;;5025777;28;20021;-73
2022/10/28 10:25:17;;;;;;;39.17;31.98;;;;;;;;;;5037090;28;20048;-73
2022/10/28 10:28:03;;;;;;;36.17;30.25;;;;;;;;;;5023545;28;20136;-73
2022/10/28 10:30:34;;;;;;;43.40;32.42;;;;;;;;;;5022218;28;20041;-72
2022/10/28 10:33:01;;;;;;;41.72;33.78;;;;;;;;;;5046865;28;20487;-72
2022/10/28 10:35:29;;;;;;;42.22;32.85;;;;;;;;;;5023590;28;20028;-74
2022/10/28 10:37:56;;;;;;;41.63;32.70;;;;;;;;;;5027488;28;20036;-75
2022/10/28 10:40:29;;;;;;;43.97;33.65;;;;;;;;;;5031749;28;20025;-75
2022/10/28 10:42:56;;;;;;;40.58;31.42;;;;;;;;;;5035170;28;20156;-74
2022/10/28 10:45:24;;;;;;;43.67;32.28;;;;;;;;;;5041331;28;20057;-75
2022/10/28 10:48:05;;;;;;;39.03;31.23;;;;;;;;;;5035573;28;20030;-74
2022/10/28 10:50:32;;;;;;;38.92;31.13;;;;;;;;;;5035261;28;20021;-74
2022/10/28 10:52:59;;;;;;;35.80;30.02;;;;;;;;;;5037157;28;20036;-75
2022/10/28 10:55:32;;;;;;;40.00;30.58;;;;;;;;;;5040554;28;20090;-74
2022/10/28 10:57:58;;;;;;;36.95;29.40;;;;;;;;;;5035418;28;20029;-74
2022/10/28 11:00:28;;;;;;;35.03;30.83;;;;;;;;;;5040568;28;20426;-74
2022/10/28 11:02:54;;;;;;;37.03;29.25;;;;;;;;;;5044418;28;20022;-73
2022/10/28 11:05:22;;;;;;;36.58;30.60;;;;;;;;;;5034383;28;20022;-74
2022/10/28 11:07:48;;;;;;;35.47;30.75;;;;;;;;;;5036742;28;20048;-74
2022/10/28 11:10:23;;;;;;;39.25;30.90;;;;;;;;;;5044472;28;20080;-73
2022/10/28 11:12:57;;;;;;;36.30;29.27;;;;;;;;;;5032357;28;21765;-74
2022/10/28 11:15:25;;;;;;;40.35;31.65;;;;;;;;;;5039111;28;20029;-74
2022/10/28 11:18:03;;;;;;;38.63;30.08;;;;;;;;;;5037405;28;20121;-74
2022/10/28 11:20:32;;;;;;;39.10;31.00;;;;;;;;;;5024033;28;20117;-75
2022/10/28 11:23:31;;;;;;;38.58;30.45;;;;;;;;;;5042535;28;20021;-74
2022/10/28 11:26:00;;;;;;;39.00;31.45;;;;;;;;;;4929621;28;20035;-75
2022/10/28 11:28:32;;;;;;;37.17;30.77;;;;;;;;;;4943662;28;20456;-74
2022/10/28 11:30:58;;;;;;;36.90;30.95;;;;;;;;;;4947963;28;20175;-74
2022/10/28 11:33:32;;;;;;;39.95;32.15;;;;;;;;;;4944220;28;20039;-74
2022/10/28 11:36:03;;;;;;;41.58;32.17;;;;;;;;;;4944506;28;20489;-73
2022/10/28 11:38:38;;;;;;;36.13;29.83;;;;;;;;;;4936259;28;20054;-75
2022/10/28 11:41:23;;;;;;;39.25;31.60;;;;;;;;;;4942490;28;20043;-75
2022/10/28 11:43:53;;;;;;;39.55;30.08;;;;;;;;;;4941507;28;20031;-76
2022/10/28 11:46:38;;;;;;;34.08;28.80;;;;;;;;;;4948483;28;20543;-74
2022/10/28 11:49:23;;;;;;;36.67;29.42;;;;;;;;;;4947946;28;20054;-76
2022/10/28 11:51:55;;;;;;;35.15;29.20;;;;;;;;;;4937139;28;20058;-75
2022/10/28 11:54:27;;;;;;;37.50;28.85;;;;;;;;;;4949433;28;20090;-77
2022/10/28 11:56:58;;;;;;;37.17;28.75;;;;;;;;;;4941672;28;20036;-75
2022/10/28 11:59:39;;;;;;;37.50;28.35;;;;;;;;;;4941856;28;20401;-76
2022/10/28 12:02:25;;;;;;;33.13;28.15;;;;;;;;;;5011634;28;20417;-76
2022/10/28 12:04:51;;;;;;;35.70;27.65;;;;;;;;;;5033248;28;20121;-76
2022/10/28 12:07:32;;;;;;;35.28;28.15;;;;;;;;;;5042195;28;20077;-76
2022/10/28 12:09:58;;;;;;;33.00;26.33;;;;;;;;;;5033884;28;20025;-76
2022/10/28 12:12:37;;;;;;;35.88;27.23;;;;;;;;;;5031227;28;20034;-75
2022/10/28 12:15:22;;;;;;;35.70;27.00;;;;;;;;;;5022832;28;20024;-75
2022/10/28 12:17:55;;;;;;;34.63;26.95;;;;;;;;;;5026451;28;20060;-78
2022/10/28 12:20:23;;;;;;;33.05;25.42;;;;;;;;;;5043491;28;20036;-78
2022/10/28 12:22:51;;;;;;;34.63;24.65;;;;;;;;;;5035369;28;20025;-77
2022/10/28 12:25:18;;;;;;;36.13;25.48;;;;;;;;;;5030627;28;20037;-77
2022/10/28 12:27:47;;;;;;;31.45;25.25;;;;;;;;;;5039214;28;20132;-75
2022/10/28 12:30:13;;;;;;;32.28;25.40;;;;;;;;;;5037637;28;20026;-76
2022/10/28 12:32:40;;;;;;;33.00;24.77;;;;;;;;;;5022578;28;20526;-76
2022/10/28 12:35:21;;;;;;;30.65;23.23;;;;;;;;;;5027673;28;20021;-75
2022/10/28 12:37:50;;;;;;;31.25;22.55;;;;;;;;;;5036359;28;20394;-75
2022/10/28 12:40:19;;;;;;;31.45;23.98;;;;;;;;;;5040342;28;20083;-77
2022/10/28 12:42:50;;;;;;;29.05;23.50;;;;;;;;;;5034424;28;20025;-76
2022/10/28 12:45:18;;;;;;;33.28;23.55;;;;;;;;;;5035165;28;20040;-77
2022/10/28 12:47:49;;;;;;;33.25;25.77;;;;;;;;;;5035747;28;20033;-77
2022/10/28 12:50:22;;;;;;;31.08;24.38;;;;;;;;;;5022081;28;20036;-76
2022/10/28 12:52:54;;;;;;;33.78;25.00;;;;;;;;;;5036234;28;20118;-76
2022/10/28 12:55:25;;;;;;;29.83;25.05;;;;;;;;;;5041898;28;20068;-77
2022/10/28 12:57:58;;;;;;;34.38;24.65;;;;;;;;;;5033642;28;20123;-76
2022/10/28 13:00:26;;;;;;;36.25;24.35;;;;;;;;;;5037148;28;20056;-76
2022/10/28 13:02:59;;;;;;;29.98;23.77;;;;;;;;;;5031990;28;20018;-77
2022/10/28 13:05:28;;;;;;;30.42;24.23;;;;;;;;;;5030473;28;20111;-76
2022/10/28 13:08:19;;;;;;;30.00;23.50;;;;;;;;;;5034338;28;20440;-77
2022/10/28 13:10:49;;;;;;;30.77;23.63;;;;;;;;;;5032005;28;20037;-75
2022/10/28 13:13:25;;;;;;;33.13;24.45;;;;;;;;;;5030208;28;20041;-76
2022/10/28 13:15:51;;;;;;;33.40;24.77;;;;;;;;;;5042213;28;20031;-76
2022/10/28 13:18:27;;;;;;;32.92;24.50;;;;;;;;;;5042738;28;20029;-76
2022/10/28 13:21:02;;;;;;;34.70;23.13;;;;;;;;;;5024331;28;20028;-77
2022/10/28 13:23:41;;;;;;;30.90;23.85;;;;;;;;;;5029736;28;20028;-76
2022/10/28 13:26:15;;;;;;;32.47;24.52;;;;;;;;;;5042011;28;20452;-76
2022/10/28 13:28:44;;;;;;;34.05;24.65;;;;;;;;;;5031261;28;20045;-76
2022/10/28 13:31:10;;;;;;;31.20;24.23;;;;;;;;;;5032358;28;20048;-76
2022/10/28 13:33:37;;;;;;;36.55;24.30;;;;;;;;;;5044575;28;20075;-76
2022/10/28 13:36:08;;;;;;;30.15;23.60;;;;;;;;;;5042505;28;20024;-77
2022/10/28 13:38:35;;;;;;;32.47;24.52;;;;;;;;;;5039666;28;20033;-76
2022/10/28 13:41:01;;;;;;;31.95;24.58;;;;;;;;;;5033851;28;20721;-76
2022/10/28 13:43:45;;;;;;;32.13;24.15;;;;;;;;;;5045108;28;20029;-76
2022/10/28 13:46:11;;;;;;;34.15;24.45;;;;;;;;;;5027846;28;20117;-76
2022/10/28 13:48:40;;;;;;;33.53;23.48;;;;;;;;;;5026554;28;20025;-76
2022/10/28 13:51:10;;;;;;;33.33;25.70;;;;;;;;;;5029087;28;20083;-76
2022/10/28 13:53:42;;;;;;;30.27;23.67;;;;;;;;;;5034386;28;20034;-76
2022/10/28 13:56:27;;;;;;;31.55;24.20;;;;;;;;;;5033310;28;20029;-76
2022/10/28 13:58:58;;;;;;;32.67;24.20;;;;;;;;;;5034533;28;20525;-76
2022/10/28 14:01:37;;;;;;;31.33;23.20;;;;;;;;;;5020934;28;20402;-76
2022/10/28 14:04:03;;;;;;;31.95;24.55;;;;;;;;;;5033042;28;20111;-76
2022/10/28 14:06:31;;;;;;;33.97;23.33;;;;;;;;;;5036856;28;20530;-76
2022/10/28 14:08:57;;;;;;;32.47;23.40;;;;;;;;;;5031606;28;20371;-77
2022/10/28 14:11:24;;;;;;;34.63;24.02;;;;;;;;;;5014907;28;20390;-75
2022/10/28 14:13:52;;;;;;;31.88;24.08;;;;;;;;;;5029661;28;20471;-76
2022/10/28 14:16:36;;;;;;;30.00;22.80;;;;;;;;;;5028379;28;20037;-76
2022/10/28 14:19:05;;;;;;;34.42;22.75;;;;;;;;;;5031720;28;20065;-76
2022/10/28 14:21:44;;;;;;;39.92;24.73;;;;;;;;;;5032322;28;20101;-77
2022/10/28 14:24:11;;;;;;;37.92;24.75;;;;;;;;;;5029151;28;20383;-76
2022/10/28 14:26:56;;;;;;;33.42;22.45;;;;;;;;;;5039163;28;20031;-76
2022/10/28 14:29:23;;;;;;;36.88;23.80;;;;;;;;;;5036747;28;20034;-76
2022/10/28 14:31:49;;;;;;;31.58;23.35;;;;;;;;;;5046980;28;20041;-76